sensor_id;sensor_type;location;lat;lon;timestamp;P1;durP1;ratioP1;P2;durP2;ratioP2
6388;SDS011;3227;42.654;23.360;2023-07-29T00:01:03;8.70;;;3.92;;
6388;SDS011;3227;42.654;23.360;2023-07-29T00:03:30;10.60;;;4.07;;
6388;SDS011;3227;42.654;23.360;2023-07-29T00:05:57;8.45;;;4.53;;
6388;SDS011;3227;42.654;23.360;2023-07-29T00:08:24;9.35;;;4.40;;
6388;SDS011;3227;42.654;23.360;2023-07-29T00:10:51;8.07;;;4.35;;
6388;SDS011;3227;42.654;23.360;2023-07-29T00:13:19;7.90;;;4.07;;
6388;SDS011;3227;42.654;23.360;2023-07-29T00:15:46;7.22;;;4.07;;
6388;SDS011;3227;42.654;23.360;2023-07-29T00:18:13;7.72;;;4.20;;
6388;SDS011;3227;42.654;23.360;2023-07-29T00:20:39;10.48;;;4.22;;
6388;SDS011;3227;42.654;23.360;2023-07-29T00:23:06;8.80;;;3.83;;
6388;SDS011;3227;42.654;23.360;2023-07-29T00:25:33;11.15;;;4.10;;
6388;SDS011;3227;42.654;23.360;2023-07-29T00:28:00;11.35;;;4.20;;
6388;SDS011;3227;42.654;23.360;2023-07-29T00:30:28;8.07;;;4.07;;
6388;SDS011;3227;42.654;23.360;2023-07-29T00:32:55;6.85;;;3.83;;
6388;SDS011;3227;42.654;23.360;2023-07-29T00:35:27;8.38;;;4.32;;
6388;SDS011;3227;42.654;23.360;2023-07-29T00:37:53;12.65;;;3.83;;
6388;SDS011;3227;42.654;23.360;2023-07-29T00:40:21;8.65;;;4.20;;
6388;SDS011;3227;42.654;23.360;2023-07-29T00:42:48;7.88;;;4.10;;
6388;SDS011;3227;42.654;23.360;2023-07-29T00:45:16;12.95;;;3.90;;
6388;SDS011;3227;42.654;23.360;2023-07-29T00:47:44;10.68;;;5.00;;
6388;SDS011;3227;42.654;23.360;2023-07-29T00:50:12;10.15;;;4.38;;
6388;SDS011;3227;42.654;23.360;2023-07-29T00:52:41;10.48;;;4.05;;
6388;SDS011;3227;42.654;23.360;2023-07-29T00:55:18;7.82;;;4.20;;
6388;SDS011;3227;42.654;23.360;2023-07-29T00:57:45;9.77;;;4.85;;
6388;SDS011;3227;42.654;23.360;2023-07-29T01:00:13;9.05;;;4.43;;
6388;SDS011;3227;42.654;23.360;2023-07-29T01:02:41;8.77;;;4.40;;
6388;SDS011;3227;42.654;23.360;2023-07-29T01:05:11;10.27;;;4.78;;
6388;SDS011;3227;42.654;23.360;2023-07-29T01:07:42;13.98;;;4.38;;
6388;SDS011;3227;42.654;23.360;2023-07-29T01:10:15;11.13;;;4.68;;
6388;SDS011;3227;42.654;23.360;2023-07-29T01:12:48;9.70;;;4.28;;
6388;SDS011;3227;42.654;23.360;2023-07-29T01:15:21;9.95;;;4.38;;
6388;SDS011;3227;42.654;23.360;2023-07-29T01:17:53;10.73;;;4.40;;
6388;SDS011;3227;42.654;23.360;2023-07-29T01:20:24;8.40;;;4.30;;
6388;SDS011;3227;42.654;23.360;2023-07-29T01:22:51;10.27;;;3.90;;
6388;SDS011;3227;42.654;23.360;2023-07-29T01:25:20;6.95;;;4.13;;
6388;SDS011;3227;42.654;23.360;2023-07-29T01:27:48;9.18;;;4.38;;
6388;SDS011;3227;42.654;23.360;2023-07-29T01:30:16;8.13;;;4.18;;
6388;SDS011;3227;42.654;23.360;2023-07-29T01:32:46;11.18;;;4.20;;
6388;SDS011;3227;42.654;23.360;2023-07-29T01:35:21;6.82;;;3.75;;
6388;SDS011;3227;42.654;23.360;2023-07-29T01:37:51;9.93;;;4.00;;
6388;SDS011;3227;42.654;23.360;2023-07-29T01:40:23;13.10;;;4.55;;
6388;SDS011;3227;42.654;23.360;2023-07-29T01:42:53;9.32;;;4.45;;
6388;SDS011;3227;42.654;23.360;2023-07-29T01:45:22;9.23;;;3.92;;
6388;SDS011;3227;42.654;23.360;2023-07-29T01:47:49;10.85;;;4.32;;
6388;SDS011;3227;42.654;23.360;2023-07-29T01:50:16;9.05;;;4.55;;
6388;SDS011;3227;42.654;23.360;2023-07-29T01:52:43;8.93;;;4.70;;
6388;SDS011;3227;42.654;23.360;2023-07-29T01:55:10;8.98;;;4.40;;
6388;SDS011;3227;42.654;23.360;2023-07-29T01:57:38;9.27;;;4.28;;
6388;SDS011;3227;42.654;23.360;2023-07-29T02:00:05;9.45;;;4.65;;
6388;SDS011;3227;42.654;23.360;2023-07-29T02:02:34;13.77;;;4.90;;
6388;SDS011;3227;42.654;23.360;2023-07-29T02:05:01;8.57;;;4.95;;
6388;SDS011;3227;42.654;23.360;2023-07-29T02:07:28;7.78;;;4.30;;
6388;SDS011;3227;42.654;23.360;2023-07-29T02:09:54;13.75;;;4.80;;
6388;SDS011;3227;42.654;23.360;2023-07-29T02:12:21;7.10;;;4.40;;
6388;SDS011;3227;42.654;23.360;2023-07-29T02:14:49;10.20;;;4.45;;
6388;SDS011;3227;42.654;23.360;2023-07-29T02:17:16;8.98;;;4.45;;
6388;SDS011;3227;42.654;23.360;2023-07-29T02:19:43;9.10;;;4.40;;
6388;SDS011;3227;42.654;23.360;2023-07-29T02:22:10;8.07;;;3.88;;
6388;SDS011;3227;42.654;23.360;2023-07-29T02:24:39;9.20;;;4.05;;
6388;SDS011;3227;42.654;23.360;2023-07-29T02:27:08;8.98;;;3.70;;
6388;SDS011;3227;42.654;23.360;2023-07-29T02:29:35;8.93;;;3.70;;
6388;SDS011;3227;42.654;23.360;2023-07-29T02:32:03;11.85;;;4.32;;
6388;SDS011;3227;42.654;23.360;2023-07-29T02:34:30;9.73;;;3.58;;
6388;SDS011;3227;42.654;23.360;2023-07-29T02:36:57;7.82;;;4.25;;
6388;SDS011;3227;42.654;23.360;2023-07-29T02:39:24;6.57;;;3.92;;
6388;SDS011;3227;42.654;23.360;2023-07-29T02:41:50;10.05;;;4.03;;
6388;SDS011;3227;42.654;23.360;2023-07-29T02:44:17;6.45;;;4.05;;
6388;SDS011;3227;42.654;23.360;2023-07-29T02:46:45;7.70;;;4.50;;
6388;SDS011;3227;42.654;23.360;2023-07-29T02:49:13;9.77;;;4.03;;
6388;SDS011;3227;42.654;23.360;2023-07-29T02:51:39;7.07;;;3.53;;
6388;SDS011;3227;42.654;23.360;2023-07-29T02:54:06;6.47;;;3.88;;
6388;SDS011;3227;42.654;23.360;2023-07-29T02:56:43;6.80;;;3.70;;
6388;SDS011;3227;42.654;23.360;2023-07-29T02:59:10;10.57;;;4.25;;
6388;SDS011;3227;42.654;23.360;2023-07-29T03:01:37;8.80;;;3.80;;
6388;SDS011;3227;42.654;23.360;2023-07-29T03:04:03;10.48;;;4.30;;
6388;SDS011;3227;42.654;23.360;2023-07-29T03:06:32;13.82;;;4.57;;
6388;SDS011;3227;42.654;23.360;2023-07-29T03:08:58;11.45;;;4.07;;
6388;SDS011;3227;42.654;23.360;2023-07-29T03:11:25;7.57;;;3.70;;
6388;SDS011;3227;42.654;23.360;2023-07-29T03:13:52;7.75;;;4.32;;
6388;SDS011;3227;42.654;23.360;2023-07-29T03:16:18;6.18;;;3.72;;
6388;SDS011;3227;42.654;23.360;2023-07-29T03:18:45;8.45;;;3.92;;
6388;SDS011;3227;42.654;23.360;2023-07-29T03:21:12;9.10;;;3.70;;
6388;SDS011;3227;42.654;23.360;2023-07-29T03:23:40;8.13;;;3.83;;
6388;SDS011;3227;42.654;23.360;2023-07-29T03:26:07;9.32;;;4.22;;
6388;SDS011;3227;42.654;23.360;2023-07-29T03:28:36;9.35;;;4.30;;
6388;SDS011;3227;42.654;23.360;2023-07-29T03:31:04;8.60;;;3.78;;
6388;SDS011;3227;42.654;23.360;2023-07-29T03:33:31;9.40;;;4.00;;
6388;SDS011;3227;42.654;23.360;2023-07-29T03:35:57;6.88;;;4.18;;
6388;SDS011;3227;42.654;23.360;2023-07-29T03:38:26;9.25;;;4.03;;
6388;SDS011;3227;42.654;23.360;2023-07-29T03:40:54;17.23;;;4.18;;
6388;SDS011;3227;42.654;23.360;2023-07-29T03:43:22;9.20;;;3.95;;
6388;SDS011;3227;42.654;23.360;2023-07-29T03:45:49;13.13;;;4.25;;
6388;SDS011;3227;42.654;23.360;2023-07-29T03:48:16;7.25;;;4.00;;
6388;SDS011;3227;42.654;23.360;2023-07-29T03:50:42;7.30;;;4.05;;
6388;SDS011;3227;42.654;23.360;2023-07-29T03:53:09;9.55;;;3.70;;
6388;SDS011;3227;42.654;23.360;2023-07-29T03:55:36;10.30;;;3.83;;
6388;SDS011;3227;42.654;23.360;2023-07-29T03:58:06;14.75;;;3.67;;
6388;SDS011;3227;42.654;23.360;2023-07-29T04:00:34;8.30;;;3.72;;
6388;SDS011;3227;42.654;23.360;2023-07-29T04:03:00;10.13;;;3.78;;
6388;SDS011;3227;42.654;23.360;2023-07-29T04:05:27;10.98;;;3.60;;
6388;SDS011;3227;42.654;23.360;2023-07-29T04:07:54;7.88;;;3.75;;
6388;SDS011;3227;42.654;23.360;2023-07-29T04:10:21;10.20;;;3.65;;
6388;SDS011;3227;42.654;23.360;2023-07-29T04:12:48;8.52;;;3.90;;
6388;SDS011;3227;42.654;23.360;2023-07-29T04:15:16;8.40;;;3.65;;
6388;SDS011;3227;42.654;23.360;2023-07-29T04:17:43;9.25;;;4.03;;
6388;SDS011;3227;42.654;23.360;2023-07-29T04:20:10;6.13;;;3.72;;
6388;SDS011;3227;42.654;23.360;2023-07-29T04:22:37;7.45;;;3.47;;
6388;SDS011;3227;42.654;23.360;2023-07-29T04:25:07;8.73;;;3.38;;
6388;SDS011;3227;42.654;23.360;2023-07-29T04:27:34;6.35;;;3.38;;
6388;SDS011;3227;42.654;23.360;2023-07-29T04:30:00;7.13;;;3.60;;
6388;SDS011;3227;42.654;23.360;2023-07-29T04:32:28;5.43;;;3.08;;
6388;SDS011;3227;42.654;23.360;2023-07-29T04:34:55;7.38;;;3.60;;
6388;SDS011;3227;42.654;23.360;2023-07-29T04:37:22;5.57;;;3.35;;
6388;SDS011;3227;42.654;23.360;2023-07-29T04:39:49;6.25;;;3.40;;
6388;SDS011;3227;42.654;23.360;2023-07-29T04:42:15;7.53;;;3.40;;
6388;SDS011;3227;42.654;23.360;2023-07-29T04:44:42;6.97;;;3.45;;
6388;SDS011;3227;42.654;23.360;2023-07-29T04:47:09;8.30;;;3.42;;
6388;SDS011;3227;42.654;23.360;2023-07-29T04:49:37;5.32;;;3.20;;
6388;SDS011;3227;42.654;23.360;2023-07-29T04:52:04;7.10;;;3.60;;
6388;SDS011;3227;42.654;23.360;2023-07-29T04:54:32;6.45;;;3.28;;
6388;SDS011;3227;42.654;23.360;2023-07-29T04:56:58;9.35;;;3.47;;
6388;SDS011;3227;42.654;23.360;2023-07-29T04:59:25;5.57;;;3.25;;
6388;SDS011;3227;42.654;23.360;2023-07-29T05:01:52;5.93;;;3.40;;
6388;SDS011;3227;42.654;23.360;2023-07-29T05:04:18;8.60;;;3.85;;
6388;SDS011;3227;42.654;23.360;2023-07-29T05:06:47;6.15;;;3.40;;
6388;SDS011;3227;42.654;23.360;2023-07-29T05:09:13;7.72;;;3.47;;
6388;SDS011;3227;42.654;23.360;2023-07-29T05:11:41;7.65;;;3.25;;
6388;SDS011;3227;42.654;23.360;2023-07-29T05:14:08;4.57;;;3.15;;
6388;SDS011;3227;42.654;23.360;2023-07-29T05:16:35;5.35;;;3.30;;
6388;SDS011;3227;42.654;23.360;2023-07-29T05:19:02;5.55;;;3.40;;
6388;SDS011;3227;42.654;23.360;2023-07-29T05:21:29;7.85;;;3.40;;
6388;SDS011;3227;42.654;23.360;2023-07-29T05:23:57;8.93;;;4.35;;
6388;SDS011;3227;42.654;23.360;2023-07-29T05:26:25;7.95;;;4.40;;
6388;SDS011;3227;42.654;23.360;2023-07-29T05:28:52;8.55;;;4.65;;
6388;SDS011;3227;42.654;23.360;2023-07-29T05:31:19;9.30;;;3.88;;
6388;SDS011;3227;42.654;23.360;2023-07-29T05:33:45;5.78;;;3.45;;
6388;SDS011;3227;42.654;23.360;2023-07-29T05:36:12;6.22;;;3.58;;
6388;SDS011;3227;42.654;23.360;2023-07-29T05:38:39;7.47;;;3.78;;
6388;SDS011;3227;42.654;23.360;2023-07-29T05:41:07;8.63;;;3.60;;
6388;SDS011;3227;42.654;23.360;2023-07-29T05:43:35;5.65;;;2.95;;
6388;SDS011;3227;42.654;23.360;2023-07-29T05:46:02;5.38;;;3.25;;
6388;SDS011;3227;42.654;23.360;2023-07-29T05:48:29;6.30;;;3.33;;
6388;SDS011;3227;42.654;23.360;2023-07-29T05:50:55;11.52;;;3.38;;
6388;SDS011;3227;42.654;23.360;2023-07-29T05:53:22;6.57;;;3.20;;
6388;SDS011;3227;42.654;23.360;2023-07-29T05:55:49;6.60;;;3.50;;
6388;SDS011;3227;42.654;23.360;2023-07-29T05:58:17;7.10;;;4.07;;
6388;SDS011;3227;42.654;23.360;2023-07-29T06:00:43;6.97;;;3.53;;
6388;SDS011;3227;42.654;23.360;2023-07-29T06:03:10;6.90;;;3.72;;
6388;SDS011;3227;42.654;23.360;2023-07-29T06:05:37;6.05;;;3.70;;
6388;SDS011;3227;42.654;23.360;2023-07-29T06:08:05;6.97;;;4.05;;
6388;SDS011;3227;42.654;23.360;2023-07-29T06:10:33;7.97;;;3.88;;
6388;SDS011;3227;42.654;23.360;2023-07-29T06:13:00;6.50;;;3.40;;
6388;SDS011;3227;42.654;23.360;2023-07-29T06:15:28;7.13;;;3.63;;
6388;SDS011;3227;42.654;23.360;2023-07-29T06:17:55;8.05;;;3.83;;
6388;SDS011;3227;42.654;23.360;2023-07-29T06:20:22;7.05;;;3.75;;
6388;SDS011;3227;42.654;23.360;2023-07-29T06:22:49;8.32;;;4.20;;
6388;SDS011;3227;42.654;23.360;2023-07-29T06:25:15;7.63;;;3.78;;
6388;SDS011;3227;42.654;23.360;2023-07-29T06:27:42;6.00;;;3.53;;
6388;SDS011;3227;42.654;23.360;2023-07-29T06:30:09;7.00;;;3.95;;
6388;SDS011;3227;42.654;23.360;2023-07-29T06:32:37;6.15;;;3.53;;
6388;SDS011;3227;42.654;23.360;2023-07-29T06:35:04;6.53;;;4.20;;
6388;SDS011;3227;42.654;23.360;2023-07-29T06:37:32;11.32;;;4.55;;
6388;SDS011;3227;42.654;23.360;2023-07-29T06:39:59;6.97;;;3.75;;
6388;SDS011;3227;42.654;23.360;2023-07-29T06:42:26;13.80;;;4.10;;
6388;SDS011;3227;42.654;23.360;2023-07-29T06:44:52;7.15;;;3.92;;
6388;SDS011;3227;42.654;23.360;2023-07-29T06:47:19;13.73;;;4.30;;
6388;SDS011;3227;42.654;23.360;2023-07-29T06:49:47;8.88;;;3.90;;
6388;SDS011;3227;42.654;23.360;2023-07-29T06:52:14;8.02;;;3.90;;
6388;SDS011;3227;42.654;23.360;2023-07-29T06:54:41;6.82;;;3.72;;
6388;SDS011;3227;42.654;23.360;2023-07-29T06:57:07;6.45;;;3.63;;
6388;SDS011;3227;42.654;23.360;2023-07-29T06:59:35;7.28;;;4.00;;
6388;SDS011;3227;42.654;23.360;2023-07-29T07:02:02;11.75;;;4.55;;
6388;SDS011;3227;42.654;23.360;2023-07-29T07:04:29;7.75;;;4.25;;
6388;SDS011;3227;42.654;23.360;2023-07-29T07:06:57;11.55;;;4.18;;
6388;SDS011;3227;42.654;23.360;2023-07-29T07:09:25;11.82;;;4.70;;
6388;SDS011;3227;42.654;23.360;2023-07-29T07:11:52;17.35;;;4.28;;
6388;SDS011;3227;42.654;23.360;2023-07-29T07:14:19;11.95;;;4.55;;
6388;SDS011;3227;42.654;23.360;2023-07-29T07:16:45;7.88;;;4.50;;
6388;SDS011;3227;42.654;23.360;2023-07-29T07:19:12;9.93;;;4.50;;
6388;SDS011;3227;42.654;23.360;2023-07-29T07:21:39;8.25;;;4.40;;
6388;SDS011;3227;42.654;23.360;2023-07-29T07:24:07;14.15;;;4.43;;
6388;SDS011;3227;42.654;23.360;2023-07-29T07:26:34;12.10;;;4.75;;
6388;SDS011;3227;42.654;23.360;2023-07-29T07:29:01;9.65;;;4.38;;
6388;SDS011;3227;42.654;23.360;2023-07-29T07:31:27;10.93;;;5.10;;
6388;SDS011;3227;42.654;23.360;2023-07-29T07:33:54;10.40;;;5.03;;
6388;SDS011;3227;42.654;23.360;2023-07-29T07:36:21;12.85;;;5.30;;
6388;SDS011;3227;42.654;23.360;2023-07-29T07:38:47;10.93;;;4.80;;
6388;SDS011;3227;42.654;23.360;2023-07-29T07:41:15;10.68;;;5.07;;
6388;SDS011;3227;42.654;23.360;2023-07-29T07:43:42;11.00;;;4.53;;
6388;SDS011;3227;42.654;23.360;2023-07-29T07:46:09;11.82;;;4.50;;
6388;SDS011;3227;42.654;23.360;2023-07-29T07:48:36;10.35;;;4.35;;
6388;SDS011;3227;42.654;23.360;2023-07-29T07:51:09;21.73;;;5.20;;
6388;SDS011;3227;42.654;23.360;2023-07-29T07:53:37;11.70;;;4.35;;
6388;SDS011;3227;42.654;23.360;2023-07-29T07:56:04;9.40;;;4.10;;
6388;SDS011;3227;42.654;23.360;2023-07-29T07:58:32;8.60;;;4.47;;
6388;SDS011;3227;42.654;23.360;2023-07-29T08:01:02;8.27;;;3.88;;
6388;SDS011;3227;42.654;23.360;2023-07-29T08:03:29;9.57;;;4.60;;
6388;SDS011;3227;42.654;23.360;2023-07-29T08:06:06;7.35;;;4.18;;
6388;SDS011;3227;42.654;23.360;2023-07-29T08:08:33;9.23;;;4.05;;
6388;SDS011;3227;42.654;23.360;2023-07-29T08:11:00;7.50;;;3.60;;
6388;SDS011;3227;42.654;23.360;2023-07-29T08:13:26;7.43;;;4.03;;
6388;SDS011;3227;42.654;23.360;2023-07-29T08:15:55;6.95;;;3.83;;
6388;SDS011;3227;42.654;23.360;2023-07-29T08:18:21;9.95;;;3.83;;
6388;SDS011;3227;42.654;23.360;2023-07-29T08:20:52;8.98;;;4.15;;
6388;SDS011;3227;42.654;23.360;2023-07-29T08:23:20;11.93;;;5.47;;
6388;SDS011;3227;42.654;23.360;2023-07-29T08:25:50;8.27;;;4.03;;
6388;SDS011;3227;42.654;23.360;2023-07-29T08:28:19;8.55;;;3.78;;
6388;SDS011;3227;42.654;23.360;2023-07-29T08:30:46;8.27;;;4.05;;
6388;SDS011;3227;42.654;23.360;2023-07-29T08:33:14;10.30;;;4.10;;
6388;SDS011;3227;42.654;23.360;2023-07-29T08:35:41;7.40;;;3.95;;
6388;SDS011;3227;42.654;23.360;2023-07-29T08:38:08;6.70;;;3.45;;
6388;SDS011;3227;42.654;23.360;2023-07-29T08:40:35;11.57;;;4.00;;
6388;SDS011;3227;42.654;23.360;2023-07-29T08:43:08;7.03;;;3.45;;
6388;SDS011;3227;42.654;23.360;2023-07-29T08:45:37;9.00;;;3.85;;
6388;SDS011;3227;42.654;23.360;2023-07-29T08:48:07;8.63;;;3.60;;
6388;SDS011;3227;42.654;23.360;2023-07-29T08:50:37;9.73;;;3.58;;
6388;SDS011;3227;42.654;23.360;2023-07-29T08:53:04;9.05;;;3.65;;
6388;SDS011;3227;42.654;23.360;2023-07-29T08:55:31;8.27;;;3.28;;
6388;SDS011;3227;42.654;23.360;2023-07-29T08:57:59;6.45;;;3.40;;
6388;SDS011;3227;42.654;23.360;2023-07-29T09:00:26;6.53;;;3.05;;
6388;SDS011;3227;42.654;23.360;2023-07-29T09:02:54;10.05;;;3.08;;
6388;SDS011;3227;42.654;23.360;2023-07-29T09:05:23;6.43;;;2.65;;
6388;SDS011;3227;42.654;23.360;2023-07-29T09:07:50;9.38;;;3.40;;
6388;SDS011;3227;42.654;23.360;2023-07-29T09:10:20;5.55;;;3.03;;
6388;SDS011;3227;42.654;23.360;2023-07-29T09:12:48;5.90;;;3.47;;
6388;SDS011;3227;42.654;23.360;2023-07-29T09:15:25;5.38;;;3.05;;
6388;SDS011;3227;42.654;23.360;2023-07-29T09:17:53;4.70;;;2.30;;
6388;SDS011;3227;42.654;23.360;2023-07-29T09:20:23;7.20;;;2.80;;
6388;SDS011;3227;42.654;23.360;2023-07-29T09:22:52;5.22;;;2.45;;
6388;SDS011;3227;42.654;23.360;2023-07-29T09:25:23;4.90;;;2.20;;
6388;SDS011;3227;42.654;23.360;2023-07-29T09:27:51;3.35;;;1.90;;
6388;SDS011;3227;42.654;23.360;2023-07-29T09:30:17;9.55;;;1.90;;
6388;SDS011;3227;42.654;23.360;2023-07-29T09:32:44;6.60;;;1.73;;
6388;SDS011;3227;42.654;23.360;2023-07-29T09:35:11;4.65;;;2.22;;
6388;SDS011;3227;42.654;23.360;2023-07-29T09:37:39;6.05;;;2.70;;
6388;SDS011;3227;42.654;23.360;2023-07-29T09:40:12;6.85;;;2.55;;
6388;SDS011;3227;42.654;23.360;2023-07-29T09:42:47;6.30;;;2.50;;
6388;SDS011;3227;42.654;23.360;2023-07-29T09:45:19;2.72;;;1.88;;
6388;SDS011;3227;42.654;23.360;2023-07-29T09:47:46;4.80;;;2.20;;
6388;SDS011;3227;42.654;23.360;2023-07-29T09:50:13;4.35;;;2.20;;
6388;SDS011;3227;42.654;23.360;2023-07-29T09:52:40;4.43;;;2.40;;
6388;SDS011;3227;42.654;23.360;2023-07-29T09:55:09;4.07;;;2.42;;
6388;SDS011;3227;42.654;23.360;2023-07-29T09:57:36;4.97;;;2.40;;
6388;SDS011;3227;42.654;23.360;2023-07-29T10:00:04;11.40;;;2.67;;
6388;SDS011;3227;42.654;23.360;2023-07-29T10:02:36;3.90;;;2.53;;
6388;SDS011;3227;42.654;23.360;2023-07-29T10:05:03;6.30;;;2.40;;
6388;SDS011;3227;42.654;23.360;2023-07-29T10:07:31;7.07;;;2.85;;
6388;SDS011;3227;42.654;23.360;2023-07-29T10:09:59;7.55;;;2.55;;
6388;SDS011;3227;42.654;23.360;2023-07-29T10:12:30;6.70;;;2.53;;
6388;SDS011;3227;42.654;23.360;2023-07-29T10:14:59;4.85;;;2.13;;
6388;SDS011;3227;42.654;23.360;2023-07-29T10:17:26;3.97;;;2.22;;
6388;SDS011;3227;42.654;23.360;2023-07-29T10:19:53;4.68;;;2.30;;
6388;SDS011;3227;42.654;23.360;2023-07-29T10:22:24;5.80;;;2.30;;
6388;SDS011;3227;42.654;23.360;2023-07-29T10:24:53;4.53;;;2.40;;
6388;SDS011;3227;42.654;23.360;2023-07-29T10:27:22;4.00;;;2.05;;
6388;SDS011;3227;42.654;23.360;2023-07-29T10:29:52;4.10;;;2.15;;
6388;SDS011;3227;42.654;23.360;2023-07-29T10:32:22;3.70;;;2.10;;
6388;SDS011;3227;42.654;23.360;2023-07-29T10:34:51;4.45;;;2.40;;
6388;SDS011;3227;42.654;23.360;2023-07-29T10:37:18;3.78;;;2.20;;
6388;SDS011;3227;42.654;23.360;2023-07-29T10:39:51;7.05;;;2.00;;
6388;SDS011;3227;42.654;23.360;2023-07-29T10:42:20;4.72;;;2.20;;
6388;SDS011;3227;42.654;23.360;2023-07-29T10:44:48;4.88;;;2.53;;
6388;SDS011;3227;42.654;23.360;2023-07-29T10:47:18;4.50;;;2.30;;
6388;SDS011;3227;42.654;23.360;2023-07-29T10:49:46;5.75;;;2.45;;
6388;SDS011;3227;42.654;23.360;2023-07-29T10:52:27;5.85;;;1.95;;
6388;SDS011;3227;42.654;23.360;2023-07-29T10:55:01;6.57;;;2.42;;
6388;SDS011;3227;42.654;23.360;2023-07-29T10:57:32;4.03;;;2.10;;
6388;SDS011;3227;42.654;23.360;2023-07-29T11:00:00;11.23;;;2.47;;
6388;SDS011;3227;42.654;23.360;2023-07-29T11:02:30;4.20;;;2.20;;
6388;SDS011;3227;42.654;23.360;2023-07-29T11:04:58;3.20;;;2.00;;
6388;SDS011;3227;42.654;23.360;2023-07-29T11:07:26;4.38;;;2.15;;
6388;SDS011;3227;42.654;23.360;2023-07-29T11:10:02;2.92;;;1.88;;
6388;SDS011;3227;42.654;23.360;2023-07-29T11:12:34;3.88;;;2.00;;
6388;SDS011;3227;42.654;23.360;2023-07-29T11:15:11;5.68;;;2.30;;
6388;SDS011;3227;42.654;23.360;2023-07-29T11:17:41;3.53;;;2.00;;
6388;SDS011;3227;42.654;23.360;2023-07-29T11:20:09;3.33;;;2.10;;
6388;SDS011;3227;42.654;23.360;2023-07-29T11:22:37;3.40;;;1.83;;
6388;SDS011;3227;42.654;23.360;2023-07-29T11:25:05;4.07;;;2.20;;
6388;SDS011;3227;42.654;23.360;2023-07-29T11:27:34;3.45;;;1.85;;
6388;SDS011;3227;42.654;23.360;2023-07-29T11:30:01;4.53;;;2.15;;
6388;SDS011;3227;42.654;23.360;2023-07-29T11:32:30;3.78;;;2.17;;
6388;SDS011;3227;42.654;23.360;2023-07-29T11:35:00;4.43;;;1.90;;
6388;SDS011;3227;42.654;23.360;2023-07-29T11:37:28;2.75;;;1.73;;
6388;SDS011;3227;42.654;23.360;2023-07-29T11:39:54;6.78;;;2.88;;
6388;SDS011;3227;42.654;23.360;2023-07-29T11:42:21;3.95;;;2.15;;
6388;SDS011;3227;42.654;23.360;2023-07-29T11:44:48;5.13;;;1.75;;
6388;SDS011;3227;42.654;23.360;2023-07-29T11:47:15;3.87;;;1.90;;
6388;SDS011;3227;42.654;23.360;2023-07-29T11:49:41;2.72;;;1.73;;
6388;SDS011;3227;42.654;23.360;2023-07-29T11:52:10;3.90;;;1.98;;
6388;SDS011;3227;42.654;23.360;2023-07-29T11:54:38;4.77;;;2.37;;
6388;SDS011;3227;42.654;23.360;2023-07-29T11:57:06;3.67;;;1.90;;
6388;SDS011;3227;42.654;23.360;2023-07-29T11:59:33;5.60;;;2.10;;
6388;SDS011;3227;42.654;23.360;2023-07-29T12:02:01;3.70;;;1.85;;
6388;SDS011;3227;42.654;23.360;2023-07-29T12:04:31;4.00;;;1.83;;
6388;SDS011;3227;42.654;23.360;2023-07-29T12:06:59;3.40;;;2.10;;
6388;SDS011;3227;42.654;23.360;2023-07-29T12:09:28;3.13;;;1.95;;
6388;SDS011;3227;42.654;23.360;2023-07-29T12:11:55;4.45;;;1.80;;
6388;SDS011;3227;42.654;23.360;2023-07-29T12:14:25;3.85;;;1.95;;
6388;SDS011;3227;42.654;23.360;2023-07-29T12:16:52;2.95;;;2.00;;
6388;SDS011;3227;42.654;23.360;2023-07-29T12:19:20;4.25;;;1.80;;
6388;SDS011;3227;42.654;23.360;2023-07-29T12:21:48;2.03;;;1.50;;
6388;SDS011;3227;42.654;23.360;2023-07-29T12:24:15;5.93;;;2.20;;
6388;SDS011;3227;42.654;23.360;2023-07-29T12:26:43;3.60;;;1.70;;
6388;SDS011;3227;42.654;23.360;2023-07-29T12:29:14;2.47;;;1.60;;
6388;SDS011;3227;42.654;23.360;2023-07-29T12:31:41;3.20;;;1.65;;
6388;SDS011;3227;42.654;23.360;2023-07-29T12:34:08;5.07;;;1.90;;
6388;SDS011;3227;42.654;23.360;2023-07-29T12:36:43;2.15;;;1.58;;
6388;SDS011;3227;42.654;23.360;2023-07-29T12:39:17;2.30;;;1.55;;
6388;SDS011;3227;42.654;23.360;2023-07-29T12:41:46;2.95;;;1.90;;
6388;SDS011;3227;42.654;23.360;2023-07-29T12:44:15;2.60;;;1.80;;
6388;SDS011;3227;42.654;23.360;2023-07-29T12:46:42;3.55;;;1.98;;
6388;SDS011;3227;42.654;23.360;2023-07-29T12:49:09;3.42;;;1.95;;
6388;SDS011;3227;42.654;23.360;2023-07-29T12:51:36;7.55;;;2.20;;
6388;SDS011;3227;42.654;23.360;2023-07-29T12:54:03;3.38;;;2.00;;
6388;SDS011;3227;42.654;23.360;2023-07-29T12:56:31;4.15;;;2.00;;
6388;SDS011;3227;42.654;23.360;2023-07-29T12:59:00;9.68;;;2.25;;
6388;SDS011;3227;42.654;23.360;2023-07-29T13:01:28;4.75;;;2.20;;
6388;SDS011;3227;42.654;23.360;2023-07-29T13:03:55;7.85;;;2.30;;
6388;SDS011;3227;42.654;23.360;2023-07-29T13:06:22;5.32;;;2.40;;
6388;SDS011;3227;42.654;23.360;2023-07-29T13:08:49;5.68;;;2.20;;
6388;SDS011;3227;42.654;23.360;2023-07-29T13:11:16;5.53;;;2.60;;
6388;SDS011;3227;42.654;23.360;2023-07-29T13:13:47;8.48;;;4.60;;
6388;SDS011;3227;42.654;23.360;2023-07-29T13:16:15;7.25;;;2.30;;
6388;SDS011;3227;42.654;23.360;2023-07-29T13:18:42;3.35;;;1.90;;
6388;SDS011;3227;42.654;23.360;2023-07-29T13:21:10;4.60;;;2.30;;
6388;SDS011;3227;42.654;23.360;2023-07-29T13:23:36;7.35;;;2.22;;
6388;SDS011;3227;42.654;23.360;2023-07-29T13:26:03;13.07;;;2.33;;
6388;SDS011;3227;42.654;23.360;2023-07-29T13:28:30;4.68;;;2.00;;
6388;SDS011;3227;42.654;23.360;2023-07-29T13:30:57;6.68;;;2.50;;
6388;SDS011;3227;42.654;23.360;2023-07-29T13:33:26;6.25;;;2.42;;
6388;SDS011;3227;42.654;23.360;2023-07-29T13:35:53;3.55;;;2.10;;
6388;SDS011;3227;42.654;23.360;2023-07-29T13:38:20;3.75;;;2.00;;
6388;SDS011;3227;42.654;23.360;2023-07-29T13:40:49;5.32;;;2.25;;
6388;SDS011;3227;42.654;23.360;2023-07-29T13:43:16;2.88;;;1.80;;
6388;SDS011;3227;42.654;23.360;2023-07-29T13:45:43;5.53;;;2.42;;
6388;SDS011;3227;42.654;23.360;2023-07-29T13:48:11;6.70;;;2.33;;
6388;SDS011;3227;42.654;23.360;2023-07-29T13:50:39;3.85;;;2.20;;
6388;SDS011;3227;42.654;23.360;2023-07-29T13:53:06;17.13;;;3.30;;
6388;SDS011;3227;42.654;23.360;2023-07-29T13:55:33;4.38;;;2.15;;
6388;SDS011;3227;42.654;23.360;2023-07-29T13:57:59;8.18;;;3.03;;
6388;SDS011;3227;42.654;23.360;2023-07-29T14:00:27;3.53;;;2.05;;
6388;SDS011;3227;42.654;23.360;2023-07-29T14:02:53;3.90;;;2.22;;
6388;SDS011;3227;42.654;23.360;2023-07-29T14:05:20;5.05;;;2.53;;
6388;SDS011;3227;42.654;23.360;2023-07-29T14:07:48;6.70;;;2.55;;
6388;SDS011;3227;42.654;23.360;2023-07-29T14:10:15;5.32;;;2.47;;
6388;SDS011;3227;42.654;23.360;2023-07-29T14:12:42;4.68;;;2.40;;
6388;SDS011;3227;42.654;23.360;2023-07-29T14:15:09;6.38;;;2.30;;
6388;SDS011;3227;42.654;23.360;2023-07-29T14:17:36;4.00;;;2.22;;
6388;SDS011;3227;42.654;23.360;2023-07-29T14:20:03;4.78;;;2.30;;
6388;SDS011;3227;42.654;23.360;2023-07-29T14:22:31;6.47;;;3.05;;
6388;SDS011;3227;42.654;23.360;2023-07-29T14:24:59;4.50;;;2.10;;
6388;SDS011;3227;42.654;23.360;2023-07-29T14:27:26;6.18;;;2.30;;
6388;SDS011;3227;42.654;23.360;2023-07-29T14:29:53;5.95;;;2.08;;
6388;SDS011;3227;42.654;23.360;2023-07-29T14:32:19;6.55;;;2.35;;
6388;SDS011;3227;42.654;23.360;2023-07-29T14:34:47;3.92;;;2.15;;
6388;SDS011;3227;42.654;23.360;2023-07-29T14:37:14;5.90;;;2.45;;
6388;SDS011;3227;42.654;23.360;2023-07-29T14:39:40;4.30;;;2.28;;
6388;SDS011;3227;42.654;23.360;2023-07-29T14:42:09;3.65;;;2.00;;
6388;SDS011;3227;42.654;23.360;2023-07-29T14:44:35;4.85;;;2.42;;
6388;SDS011;3227;42.654;23.360;2023-07-29T14:47:02;4.82;;;2.60;;
6388;SDS011;3227;42.654;23.360;2023-07-29T14:49:29;5.32;;;2.15;;
6388;SDS011;3227;42.654;23.360;2023-07-29T14:51:56;7.32;;;2.38;;
6388;SDS011;3227;42.654;23.360;2023-07-29T14:54:23;4.40;;;2.22;;
6388;SDS011;3227;42.654;23.360;2023-07-29T14:56:49;4.60;;;2.28;;
6388;SDS011;3227;42.654;23.360;2023-07-29T14:59:17;3.65;;;2.10;;
6388;SDS011;3227;42.654;23.360;2023-07-29T15:01:44;4.88;;;2.30;;
6388;SDS011;3227;42.654;23.360;2023-07-29T15:04:11;5.55;;;2.03;;